sensor_id;sensor_type;location;lat;lon;timestamp;pressure;altitude;pressure_sealevel;temperature;humidity
49645;BME280;36494;50.730;-1.932;2024-02-14T00:00:54;100696.87;;;10.66;100.00
49645;BME280;36494;50.730;-1.932;2024-02-14T00:03:18;100703.37;;;10.67;100.00
49645;BME280;36494;50.730;-1.932;2024-02-14T00:05:44;100709.05;;;10.74;100.00
49645;BME280;36494;50.730;-1.932;2024-02-14T00:08:09;100713.34;;;10.76;100.00
49645;BME280;36494;50.730;-1.932;2024-02-14T00:10:35;100712.16;;;10.72;100.00
49645;BME280;36494;50.730;-1.932;2024-02-14T00:13:00;100719.31;;;10.72;100.00
49645;BME280;36494;50.730;-1.932;2024-02-14T00:15:26;100716.39;;;10.72;100.00
49645;BME280;36494;50.730;-1.932;2024-02-14T00:17:51;100717.45;;;10.68;100.00
49645;BME280;36494;50.730;-1.932;2024-02-14T00:20:17;100718.24;;;10.69;100.00
49645;BME280;36494;50.730;-1.932;2024-02-14T00:22:42;100717.26;;;10.74;100.00
49645;BME280;36494;50.730;-1.932;2024-02-14T00:25:08;100714.80;;;10.63;100.00
49645;BME280;36494;50.730;-1.932;2024-02-14T00:27:33;100719.67;;;10.66;100.00
49645;BME280;36494;50.730;-1.932;2024-02-14T00:29:59;100726.20;;;10.70;100.00
49645;BME280;36494;50.730;-1.932;2024-02-14T00:32:24;100724.02;;;10.70;100.00
49645;BME280;36494;50.730;-1.932;2024-02-14T00:34:50;100728.83;;;10.71;100.00
49645;BME280;36494;50.730;-1.932;2024-02-14T00:37:15;100731.79;;;10.72;100.00
49645;BME280;36494;50.730;-1.932;2024-02-14T00:39:40;100730.73;;;10.70;100.00
49645;BME280;36494;50.730;-1.932;2024-02-14T00:42:06;100737.57;;;10.65;100.00
49645;BME280;36494;50.730;-1.932;2024-02-14T00:44:31;100737.86;;;10.61;100.00
49645;BME280;36494;50.730;-1.932;2024-02-14T00:47:01;100738.96;;;10.67;100.00
49645;BME280;36494;50.730;-1.932;2024-02-14T00:49:22;100746.00;;;10.67;100.00
49645;BME280;36494;50.730;-1.932;2024-02-14T00:51:49;100750.34;;;10.62;100.00
49645;BME280;36494;50.730;-1.932;2024-02-14T00:54:14;100749.86;;;10.61;100.00
49645;BME280;36494;50.730;-1.932;2024-02-14T00:56:39;100748.27;;;10.65;100.00
49645;BME280;36494;50.730;-1.932;2024-02-14T00:59:05;100756.63;;;10.61;100.00
49645;BME280;36494;50.730;-1.932;2024-02-14T01:01:31;100759.44;;;10.64;100.00
49645;BME280;36494;50.730;-1.932;2024-02-14T01:03:56;100756.59;;;10.64;100.00
49645;BME280;36494;50.730;-1.932;2024-02-14T01:06:22;100753.60;;;10.60;100.00
49645;BME280;36494;50.730;-1.932;2024-02-14T01:08:48;100748.02;;;10.58;100.00
49645;BME280;36494;50.730;-1.932;2024-02-14T01:11:13;100755.10;;;10.61;100.00
49645;BME280;36494;50.730;-1.932;2024-02-14T01:13:39;100756.39;;;10.60;100.00
49645;BME280;36494;50.730;-1.932;2024-02-14T01:16:05;100757.00;;;10.59;100.00
49645;BME280;36494;50.730;-1.932;2024-02-14T01:18:30;100755.04;;;10.57;100.00
49645;BME280;36494;50.730;-1.932;2024-02-14T01:20:56;100761.95;;;10.61;100.00
49645;BME280;36494;50.730;-1.932;2024-02-14T01:23:23;100759.29;;;10.56;100.00
49645;BME280;36494;50.730;-1.932;2024-02-14T01:25:47;100758.02;;;10.64;100.00
49645;BME280;36494;50.730;-1.932;2024-02-14T01:28:12;100759.11;;;10.65;100.00
49645;BME280;36494;50.730;-1.932;2024-02-14T01:30:38;100766.23;;;10.63;100.00
49645;BME280;36494;50.730;-1.932;2024-02-14T01:33:04;100762.27;;;10.63;100.00
49645;BME280;36494;50.730;-1.932;2024-02-14T01:35:38;100758.46;;;10.64;100.00
49645;BME280;36494;50.730;-1.932;2024-02-14T01:37:56;100763.57;;;10.67;100.00
49645;BME280;36494;50.730;-1.932;2024-02-14T01:40:20;100762.75;;;10.68;100.00
49645;BME280;36494;50.730;-1.932;2024-02-14T01:42:46;100764.66;;;10.74;100.00
49645;BME280;36494;50.730;-1.932;2024-02-14T01:45:13;100765.63;;;10.76;100.00
49645;BME280;36494;50.730;-1.932;2024-02-14T01:47:37;100762.08;;;10.75;100.00
49645;BME280;36494;50.730;-1.932;2024-02-14T01:50:02;100760.83;;;10.79;100.00
49645;BME280;36494;50.730;-1.932;2024-02-14T01:52:27;100765.74;;;10.78;100.00
49645;BME280;36494;50.730;-1.932;2024-02-14T01:54:53;100768.97;;;10.78;100.00
49645;BME280;36494;50.730;-1.932;2024-02-14T01:57:19;100765.92;;;10.70;100.00
49645;BME280;36494;50.730;-1.932;2024-02-14T01:59:44;100772.53;;;10.72;100.00
49645;BME280;36494;50.730;-1.932;2024-02-14T02:02:10;100764.71;;;10.69;100.00
49645;BME280;36494;50.730;-1.932;2024-02-14T02:04:36;100762.76;;;10.69;100.00
49645;BME280;36494;50.730;-1.932;2024-02-14T02:07:02;100763.60;;;10.67;100.00
49645;BME280;36494;50.730;-1.932;2024-02-14T02:09:28;100763.93;;;10.69;100.00
49645;BME280;36494;50.730;-1.932;2024-02-14T02:11:53;100752.75;;;10.70;100.00
49645;BME280;36494;50.730;-1.932;2024-02-14T02:14:18;100752.42;;;10.68;100.00
49645;BME280;36494;50.730;-1.932;2024-02-14T02:16:44;100747.95;;;10.71;100.00
49645;BME280;36494;50.730;-1.932;2024-02-14T02:19:10;100737.60;;;10.75;100.00
49645;BME280;36494;50.730;-1.932;2024-02-14T02:21:36;100735.35;;;10.73;100.00
49645;BME280;36494;50.730;-1.932;2024-02-14T02:24:01;100742.79;;;10.71;100.00
49645;BME280;36494;50.730;-1.932;2024-02-14T02:26:27;100743.85;;;10.71;100.00
49645;BME280;36494;50.730;-1.932;2024-02-14T02:28:52;100749.57;;;10.67;100.00
49645;BME280;36494;50.730;-1.932;2024-02-14T02:31:17;100745.65;;;10.70;100.00
49645;BME280;36494;50.730;-1.932;2024-02-14T02:33:42;100745.82;;;10.65;100.00
49645;BME280;36494;50.730;-1.932;2024-02-14T02:36:08;100749.86;;;10.63;100.00
49645;BME280;36494;50.730;-1.932;2024-02-14T02:38:34;100751.83;;;10.65;100.00
49645;BME280;36494;50.730;-1.932;2024-02-14T02:40:59;100741.42;;;10.66;100.00
49645;BME280;36494;50.730;-1.932;2024-02-14T02:43:25;100747.37;;;10.64;100.00
49645;BME280;36494;50.730;-1.932;2024-02-14T02:45:51;100748.97;;;10.63;100.00
49645;BME280;36494;50.730;-1.932;2024-02-14T02:48:16;100740.70;;;10.66;100.00
49645;BME280;36494;50.730;-1.932;2024-02-14T02:50:41;100736.24;;;10.67;100.00
49645;BME280;36494;50.730;-1.932;2024-02-14T02:53:07;100741.51;;;10.67;100.00
49645;BME280;36494;50.730;-1.932;2024-02-14T02:55:32;100748.43;;;10.69;100.00
49645;BME280;36494;50.730;-1.932;2024-02-14T02:57:58;100749.22;;;10.70;100.00
49645;BME280;36494;50.730;-1.932;2024-02-14T03:00:23;100741.72;;;10.66;100.00
49645;BME280;36494;50.730;-1.932;2024-02-14T03:02:49;100737.74;;;10.67;100.00
49645;BME280;36494;50.730;-1.932;2024-02-14T03:05:14;100735.72;;;10.68;100.00
49645;BME280;36494;50.730;-1.932;2024-02-14T03:07:40;100736.28;;;10.69;100.00
49645;BME280;36494;50.730;-1.932;2024-02-14T03:10:06;100727.51;;;10.67;100.00
49645;BME280;36494;50.730;-1.932;2024-02-14T03:12:31;100732.81;;;10.68;100.00
49645;BME280;36494;50.730;-1.932;2024-02-14T03:14:57;100729.54;;;10.73;100.00
49645;BME280;36494;50.730;-1.932;2024-02-14T03:17:22;100727.84;;;10.68;100.00
49645;BME280;36494;50.730;-1.932;2024-02-14T03:19:48;100729.41;;;10.68;100.00
49645;BME280;36494;50.730;-1.932;2024-02-14T03:22:13;100724.58;;;10.70;100.00
49645;BME280;36494;50.730;-1.932;2024-02-14T03:24:39;100722.13;;;10.65;100.00
49645;BME280;36494;50.730;-1.932;2024-02-14T03:27:04;100735.06;;;10.70;100.00
49645;BME280;36494;50.730;-1.932;2024-02-14T03:29:29;100733.92;;;10.73;100.00
49645;BME280;36494;50.730;-1.932;2024-02-14T03:31:55;100728.09;;;10.71;100.00
49645;BME280;36494;50.730;-1.932;2024-02-14T03:34:20;100727.71;;;10.71;100.00
49645;BME280;36494;50.730;-1.932;2024-02-14T03:36:45;100732.32;;;10.70;100.00
49645;BME280;36494;50.730;-1.932;2024-02-14T03:39:10;100724.95;;;10.72;100.00
49645;BME280;36494;50.730;-1.932;2024-02-14T03:41:37;100722.21;;;10.74;100.00
49645;BME280;36494;50.730;-1.932;2024-02-14T03:44:01;100717.04;;;10.70;100.00
49645;BME280;36494;50.730;-1.932;2024-02-14T03:46:26;100710.40;;;10.67;100.00
49645;BME280;36494;50.730;-1.932;2024-02-14T03:48:53;100709.52;;;10.70;100.00
49645;BME280;36494;50.730;-1.932;2024-02-14T03:51:18;100709.84;;;10.68;100.00
49645;BME280;36494;50.730;-1.932;2024-02-14T03:53:43;100715.49;;;10.70;100.00
49645;BME280;36494;50.730;-1.932;2024-02-14T03:56:08;100718.84;;;10.71;100.00
49645;BME280;36494;50.730;-1.932;2024-02-14T03:58:33;100717.72;;;10.67;100.00
49645;BME280;36494;50.730;-1.932;2024-02-14T04:00:59;100717.09;;;10.64;100.00
49645;BME280;36494;50.730;-1.932;2024-02-14T04:03:24;100711.88;;;10.66;100.00
49645;BME280;36494;50.730;-1.932;2024-02-14T04:05:50;100711.54;;;10.73;100.00
49645;BME280;36494;50.730;-1.932;2024-02-14T04:08:15;100707.92;;;10.72;100.00
49645;BME280;36494;50.730;-1.932;2024-02-14T04:10:41;100717.04;;;10.76;100.00
49645;BME280;36494;50.730;-1.932;2024-02-14T04:13:06;100716.68;;;10.79;100.00
49645;BME280;36494;50.730;-1.932;2024-02-14T04:15:32;100718.69;;;10.81;100.00
49645;BME280;36494;50.730;-1.932;2024-02-14T04:17:57;100717.73;;;10.79;100.00
49645;BME280;36494;50.730;-1.932;2024-02-14T04:20:23;100715.78;;;10.77;100.00
49645;BME280;36494;50.730;-1.932;2024-02-14T04:22:49;100709.01;;;10.74;100.00
49645;BME280;36494;50.730;-1.932;2024-02-14T04:25:14;100705.50;;;10.77;100.00
49645;BME280;36494;50.730;-1.932;2024-02-14T04:27:39;100705.80;;;10.78;100.00
49645;BME280;36494;50.730;-1.932;2024-02-14T04:30:06;100709.02;;;10.78;100.00
49645;BME280;36494;50.730;-1.932;2024-02-14T04:32:30;100713.81;;;10.85;100.00
49645;BME280;36494;50.730;-1.932;2024-02-14T04:34:55;100714.80;;;10.86;100.00
49645;BME280;36494;50.730;-1.932;2024-02-14T04:37:21;100712.52;;;10.83;100.00
49645;BME280;36494;50.730;-1.932;2024-02-14T04:39:47;100716.28;;;10.81;100.00
49645;BME280;36494;50.730;-1.932;2024-02-14T04:42:12;100720.02;;;10.86;100.00
49645;BME280;36494;50.730;-1.932;2024-02-14T04:44:37;100717.51;;;10.87;100.00
49645;BME280;36494;50.730;-1.932;2024-02-14T04:47:03;100716.14;;;10.85;100.00
49645;BME280;36494;50.730;-1.932;2024-02-14T04:49:28;100719.34;;;10.86;100.00
49645;BME280;36494;50.730;-1.932;2024-02-14T04:51:54;100714.68;;;10.82;100.00
49645;BME280;36494;50.730;-1.932;2024-02-14T04:54:18;100714.33;;;10.78;100.00
49645;BME280;36494;50.730;-1.932;2024-02-14T04:56:44;100712.19;;;10.79;100.00
49645;BME280;36494;50.730;-1.932;2024-02-14T04:59:09;100712.00;;;10.81;100.00
49645;BME280;36494;50.730;-1.932;2024-02-14T05:01:35;100718.09;;;10.80;100.00
49645;BME280;36494;50.730;-1.932;2024-02-14T05:04:00;100722.55;;;10.79;100.00
49645;BME280;36494;50.730;-1.932;2024-02-14T05:06:26;100723.10;;;10.81;100.00
49645;BME280;36494;50.730;-1.932;2024-02-14T05:08:51;100717.86;;;10.81;100.00
49645;BME280;36494;50.730;-1.932;2024-02-14T05:11:16;100716.06;;;10.77;100.00
49645;BME280;36494;50.730;-1.932;2024-02-14T05:13:42;100721.18;;;10.77;100.00
49645;BME280;36494;50.730;-1.932;2024-02-14T05:16:07;100718.78;;;10.75;100.00
49645;BME280;36494;50.730;-1.932;2024-02-14T05:18:32;100717.85;;;10.76;100.00
49645;BME280;36494;50.730;-1.932;2024-02-14T05:20:59;100719.48;;;10.77;100.00
49645;BME280;36494;50.730;-1.932;2024-02-14T05:23:24;100728.82;;;10.80;100.00
49645;BME280;36494;50.730;-1.932;2024-02-14T05:25:50;100726.27;;;10.76;100.00
49645;BME280;36494;50.730;-1.932;2024-02-14T05:28:15;100718.63;;;10.78;100.00
49645;BME280;36494;50.730;-1.932;2024-02-14T05:30:40;100725.81;;;10.76;100.00
49645;BME280;36494;50.730;-1.932;2024-02-14T05:33:06;100730.08;;;10.80;100.00
49645;BME280;36494;50.730;-1.932;2024-02-14T05:35:31;100727.60;;;10.79;100.00
49645;BME280;36494;50.730;-1.932;2024-02-14T05:37:57;100733.41;;;10.75;100.00
49645;BME280;36494;50.730;-1.932;2024-02-14T05:40:22;100731.95;;;10.73;100.00
49645;BME280;36494;50.730;-1.932;2024-02-14T05:42:48;100730.78;;;10.77;100.00
49645;BME280;36494;50.730;-1.932;2024-02-14T05:45:13;100726.63;;;10.74;100.00
49645;BME280;36494;50.730;-1.932;2024-02-14T05:47:38;100719.68;;;10.76;100.00
49645;BME280;36494;50.730;-1.932;2024-02-14T05:50:05;100730.65;;;10.79;100.00
49645;BME280;36494;50.730;-1.932;2024-02-14T05:52:30;100734.71;;;10.78;100.00
49645;BME280;36494;50.730;-1.932;2024-02-14T05:54:55;100730.88;;;10.82;100.00
49645;BME280;36494;50.730;-1.932;2024-02-14T05:57:20;100730.73;;;10.78;100.00
49645;BME280;36494;50.730;-1.932;2024-02-14T05:59:46;100731.85;;;10.78;100.00
49645;BME280;36494;50.730;-1.932;2024-02-14T06:02:12;100737.18;;;10.78;100.00
49645;BME280;36494;50.730;-1.932;2024-02-14T06:04:37;100735.45;;;10.82;100.00
49645;BME280;36494;50.730;-1.932;2024-02-14T06:07:03;100732.73;;;10.79;100.00
49645;BME280;36494;50.730;-1.932;2024-02-14T06:09:28;100731.81;;;10.82;100.00
49645;BME280;36494;50.730;-1.932;2024-02-14T06:11:54;100738.83;;;10.82;100.00
49645;BME280;36494;50.730;-1.932;2024-02-14T06:14:19;100747.58;;;10.82;100.00
49645;BME280;36494;50.730;-1.932;2024-02-14T06:16:45;100746.87;;;10.86;100.00
49645;BME280;36494;50.730;-1.932;2024-02-14T06:19:10;100744.84;;;10.86;100.00
49645;BME280;36494;50.730;-1.932;2024-02-14T06:21:36;100737.84;;;10.81;100.00
49645;BME280;36494;50.730;-1.932;2024-02-14T06:24:02;100743.07;;;10.82;100.00
49645;BME280;36494;50.730;-1.932;2024-02-14T06:26:27;100744.90;;;10.79;100.00
49645;BME280;36494;50.730;-1.932;2024-02-14T06:28:53;100741.41;;;10.79;100.00
49645;BME280;36494;50.730;-1.932;2024-02-14T06:31:19;100742.53;;;10.81;100.00
49645;BME280;36494;50.730;-1.932;2024-02-14T06:33:44;100747.27;;;10.79;100.00
49645;BME280;36494;50.730;-1.932;2024-02-14T06:36:09;100746.76;;;10.81;100.00
49645;BME280;36494;50.730;-1.932;2024-02-14T06:38:35;100752.88;;;10.74;100.00
49645;BME280;36494;50.730;-1.932;2024-02-14T06:41:01;100751.39;;;10.76;100.00
49645;BME280;36494;50.730;-1.932;2024-02-14T06:43:26;100752.97;;;10.81;100.00
49645;BME280;36494;50.730;-1.932;2024-02-14T06:45:52;100747.14;;;10.80;100.00
49645;BME280;36494;50.730;-1.932;2024-02-14T06:48:17;100745.02;;;10.84;100.00
49645;BME280;36494;50.730;-1.932;2024-02-14T06:50:43;100748.22;;;10.82;100.00
49645;BME280;36494;50.730;-1.932;2024-02-14T06:53:09;100754.54;;;10.84;100.00
49645;BME280;36494;50.730;-1.932;2024-02-14T06:55:35;100755.75;;;10.86;100.00
49645;BME280;36494;50.730;-1.932;2024-02-14T06:58:00;100757.41;;;10.89;100.00
49645;BME280;36494;50.730;-1.932;2024-02-14T07:00:25;100753.03;;;10.90;100.00
49645;BME280;36494;50.730;-1.932;2024-02-14T07:02:53;100759.68;;;10.90;100.00
49645;BME280;36494;50.730;-1.932;2024-02-14T07:05:17;100758.96;;;10.91;100.00
49645;BME280;36494;50.730;-1.932;2024-02-14T07:07:43;100758.97;;;10.90;100.00
49645;BME280;36494;50.730;-1.932;2024-02-14T07:10:09;100765.00;;;10.89;100.00
49645;BME280;36494;50.730;-1.932;2024-02-14T07:12:34;100761.40;;;10.87;100.00
49645;BME280;36494;50.730;-1.932;2024-02-14T07:15:01;100760.20;;;10.87;100.00
49645;BME280;36494;50.730;-1.932;2024-02-14T07:17:25;100765.40;;;10.90;100.00
49645;BME280;36494;50.730;-1.932;2024-02-14T07:19:50;100753.73;;;10.83;100.00
49645;BME280;36494;50.730;-1.932;2024-02-14T07:22:16;100755.38;;;10.87;100.00
49645;BME280;36494;50.730;-1.932;2024-02-14T07:24:41;100759.81;;;10.84;100.00
49645;BME280;36494;50.730;-1.932;2024-02-14T07:27:11;100759.23;;;10.84;100.00
49645;BME280;36494;50.730;-1.932;2024-02-14T07:29:32;100762.59;;;10.84;100.00
49645;BME280;36494;50.730;-1.932;2024-02-14T07:32:01;100762.68;;;10.86;100.00
49645;BME280;36494;50.730;-1.932;2024-02-14T07:34:23;100756.24;;;10.81;100.00
49645;BME280;36494;50.730;-1.932;2024-02-14T07:36:49;100767.62;;;10.83;100.00
49645;BME280;36494;50.730;-1.932;2024-02-14T07:39:14;100765.02;;;10.86;100.00
49645;BME280;36494;50.730;-1.932;2024-02-14T07:41:40;100767.93;;;10.89;100.00
49645;BME280;36494;50.730;-1.932;2024-02-14T07:44:06;100770.76;;;10.88;100.00
49645;BME280;36494;50.730;-1.932;2024-02-14T07:46:32;100776.04;;;10.88;100.00
49645;BME280;36494;50.730;-1.932;2024-02-14T07:48:58;100770.96;;;10.91;100.00
49645;BME280;36494;50.730;-1.932;2024-02-14T07:51:23;100765.63;;;10.91;100.00
49645;BME280;36494;50.730;-1.932;2024-02-14T07:53:49;100768.80;;;10.92;100.00
49645;BME280;36494;50.730;-1.932;2024-02-14T07:56:14;100772.01;;;10.93;100.00
49645;BME280;36494;50.730;-1.932;2024-02-14T07:58:39;100771.77;;;10.90;100.00
49645;BME280;36494;50.730;-1.932;2024-02-14T08:01:04;100774.68;;;10.92;100.00
49645;BME280;36494;50.730;-1.932;2024-02-14T08:03:33;100771.44;;;10.89;100.00
49645;BME280;36494;50.730;-1.932;2024-02-14T08:05:56;100774.66;;;10.92;100.00
49645;BME280;36494;50.730;-1.932;2024-02-14T08:08:21;100779.11;;;10.93;100.00
49645;BME280;36494;50.730;-1.932;2024-02-14T08:10:46;100783.35;;;10.89;100.00
49645;BME280;36494;50.730;-1.932;2024-02-14T08:13:13;100774.95;;;10.91;100.00
49645;BME280;36494;50.730;-1.932;2024-02-14T08:15:42;100779.40;;;10.90;100.00
49645;BME280;36494;50.730;-1.932;2024-02-14T08:18:05;100784.68;;;10.92;100.00
49645;BME280;36494;50.730;-1.932;2024-02-14T08:20:30;100793.61;;;10.92;100.00
49645;BME280;36494;50.730;-1.932;2024-02-14T08:22:56;100788.42;;;10.95;100.00
49645;BME280;36494;50.730;-1.932;2024-02-14T08:25:21;100786.88;;;10.91;100.00
49645;BME280;36494;50.730;-1.932;2024-02-14T08:27:47;100790.87;;;10.89;100.00
49645;BME280;36494;50.730;-1.932;2024-02-14T08:30:13;100798.36;;;10.86;100.00
49645;BME280;36494;50.730;-1.932;2024-02-14T08:32:38;100802.71;;;10.90;100.00
49645;BME280;36494;50.730;-1.932;2024-02-14T08:35:04;100810.13;;;10.90;100.00
49645;BME280;36494;50.730;-1.932;2024-02-14T08:37:29;100813.89;;;10.91;100.00
49645;BME280;36494;50.730;-1.932;2024-02-14T08:39:57;100811.53;;;10.88;100.00
49645;BME280;36494;50.730;-1.932;2024-02-14T08:42:21;100808.99;;;10.86;100.00
49645;BME280;36494;50.730;-1.932;2024-02-14T08:44:46;100806.43;;;10.92;100.00
49645;BME280;36494;50.730;-1.932;2024-02-14T08:47:15;100819.11;;;10.89;100.00
49645;BME280;36494;50.730;-1.932;2024-02-14T08:49:40;100812.50;;;10.90;100.00
49645;BME280;36494;50.730;-1.932;2024-02-14T08:52:03;100809.95;;;10.86;100.00
49645;BME280;36494;50.730;-1.932;2024-02-14T08:54:28;100815.88;;;10.93;100.00
49645;BME280;36494;50.730;-1.932;2024-02-14T08:56:54;100826.31;;;10.91;100.00
49645;BME280;36494;50.730;-1.932;2024-02-14T08:59:19;100821.26;;;10.93;100.00
49645;BME280;36494;50.730;-1.932;2024-02-14T09:01:44;100830.41;;;10.90;100.00
49645;BME280;36494;50.730;-1.932;2024-02-14T09:04:09;100823.52;;;10.96;100.00
49645;BME280;36494;50.730;-1.932;2024-02-14T09:06:35;100820.23;;;10.93;100.00
49645;BME280;36494;50.730;-1.932;2024-02-14T09:09:00;100819.92;;;10.93;100.00
49645;BME280;36494;50.730;-1.932;2024-02-14T09:11:26;100828.41;;;10.93;100.00
49645;BME280;36494;50.730;-1.932;2024-02-14T09:13:51;100833.71;;;10.94;100.00
49645;BME280;36494;50.730;-1.932;2024-02-14T09:16:17;100833.18;;;10.92;100.00
49645;BME280;36494;50.730;-1.932;2024-02-14T09:18:45;100828.55;;;10.96;100.00
49645;BME280;36494;50.730;-1.932;2024-02-14T09:21:08;100837.74;;;10.95;100.00
49645;BME280;36494;50.730;-1.932;2024-02-14T09:23:34;100845.35;;;10.96;100.00
49645;BME280;36494;50.730;-1.932;2024-02-14T09:25:59;100845.83;;;10.96;100.00
49645;BME280;36494;50.730;-1.932;2024-02-14T09:28:25;100839.73;;;10.96;100.00
49645;BME280;36494;50.730;-1.932;2024-02-14T09:30:50;100832.04;;;10.98;100.00
49645;BME280;36494;50.730;-1.932;2024-02-14T09:33:15;100840.46;;;11.01;100.00
49645;BME280;36494;50.730;-1.932;2024-02-14T09:35:41;100838.54;;;11.01;100.00
49645;BME280;36494;50.730;-1.932;2024-02-14T09:38:07;100834.89;;;10.98;100.00
49645;BME280;36494;50.730;-1.932;2024-02-14T09:40:33;100831.87;;;10.98;100.00
49645;BME280;36494;50.730;-1.932;2024-02-14T09:43:01;100827.64;;;10.97;100.00
49645;BME280;36494;50.730;-1.932;2024-02-14T09:45:25;100834.07;;;10.99;100.00
49645;BME280;36494;50.730;-1.932;2024-02-14T09:47:49;100836.11;;;11.00;100.00
49645;BME280;36494;50.730;-1.932;2024-02-14T09:50:14;100837.93;;;11.01;100.00
49645;BME280;36494;50.730;-1.932;2024-02-14T09:52:43;100842.91;;;11.05;100.00
49645;BME280;36494;50.730;-1.932;2024-02-14T09:55:05;100847.01;;;11.02;100.00
49645;BME280;36494;50.730;-1.932;2024-02-14T09:57:30;100845.67;;;11.02;100.00
49645;BME280;36494;50.730;-1.932;2024-02-14T09:59:56;100852.12;;;11.05;100.00
49645;BME280;36494;50.730;-1.932;2024-02-14T10:02:21;100853.58;;;11.03;100.00
49645;BME280;36494;50.730;-1.932;2024-02-14T10:04:48;100850.15;;;11.02;100.00
49645;BME280;36494;50.730;-1.932;2024-02-14T10:07:12;100851.20;;;11.07;100.00
49645;BME280;36494;50.730;-1.932;2024-02-14T10:09:40;100851.82;;;11.06;100.00
49645;BME280;36494;50.730;-1.932;2024-02-14T10:12:04;100853.14;;;11.07;100.00
49645;BME280;36494;50.730;-1.932;2024-02-14T10:14:28;100859.98;;;11.06;100.00
49645;BME280;36494;50.730;-1.932;2024-02-14T10:16:54;100859.74;;;11.12;100.00
49645;BME280;36494;50.730;-1.932;2024-02-14T10:19:19;100860.07;;;11.12;100.00
49645;BME280;36494;50.730;-1.932;2024-02-14T10:21:55;100861.81;;;11.06;100.00
49645;BME280;36494;50.730;-1.932;2024-02-14T10:24:10;100863.50;;;11.06;100.00
49645;BME280;36494;50.730;-1.932;2024-02-14T10:26:36;100865.73;;;11.05;100.00
49645;BME280;36494;50.730;-1.932;2024-02-14T10:29:06;100869.93;;;11.05;100.00
49645;BME280;36494;50.730;-1.932;2024-02-14T10:31:27;100870.10;;;11.09;100.00
49645;BME280;36494;50.730;-1.932;2024-02-14T10:33:55;100867.46;;;11.07;100.00
49645;BME280;36494;50.730;-1.932;2024-02-14T10:36:19;100871.55;;;11.10;100.00
49645;BME280;36494;50.730;-1.932;2024-02-14T10:38:46;100869.69;;;11.08;100.00
49645;BME280;36494;50.730;-1.932;2024-02-14T10:41:10;100872.94;;;11.04;100.00
49645;BME280;36494;50.730;-1.932;2024-02-14T10:43:35;100869.38;;;11.04;100.00
49645;BME280;36494;50.730;-1.932;2024-02-14T10:46:05;100871.35;;;11.04;100.00
49645;BME280;36494;50.730;-1.932;2024-02-14T10:48:28;100876.99;;;11.05;100.00
49645;BME280;36494;50.730;-1.932;2024-02-14T10:50:54;100871.59;;;11.03;100.00
49645;BME280;36494;50.730;-1.932;2024-02-14T10:53:19;100879.24;;;11.01;100.00
49645;BME280;36494;50.730;-1.932;2024-02-14T10:55:47;100871.10;;;10.97;100.00
49645;BME280;36494;50.730;-1.932;2024-02-14T10:58:10;100878.05;;;10.99;100.00
49645;BME280;36494;50.730;-1.932;2024-02-14T11:00:35;100884.68;;;11.01;100.00
49645;BME280;36494;50.730;-1.932;2024-02-14T11:03:00;100885.68;;;11.00;100.00
49645;BME280;36494;50.730;-1.932;2024-02-14T11:05:28;100884.29;;;11.00;100.00
49645;BME280;36494;50.730;-1.932;2024-02-14T11:07:51;100888.73;;;10.98;100.00
49645;BME280;36494;50.730;-1.932;2024-02-14T11:10:17;100898.29;;;11.01;100.00
49645;BME280;36494;50.730;-1.932;2024-02-14T11:12:42;100895.54;;;11.01;100.00
49645;BME280;36494;50.730;-1.932;2024-02-14T11:15:12;100898.57;;;11.03;100.00
49645;BME280;36494;50.730;-1.932;2024-02-14T11:17:32;100898.40;;;11.02;100.00
49645;BME280;36494;50.730;-1.932;2024-02-14T11:19:58;100899.60;;;11.06;100.00
49645;BME280;36494;50.730;-1.932;2024-02-14T11:22:24;100891.36;;;10.99;100.00
49645;BME280;36494;50.730;-1.932;2024-02-14T11:24:49;100899.56;;;11.01;100.00
49645;BME280;36494;50.730;-1.932;2024-02-14T11:27:17;100896.40;;;11.00;100.00
49645;BME280;36494;50.730;-1.932;2024-02-14T11:29:41;100901.83;;;11.02;100.00
49645;BME280;36494;50.730;-1.932;2024-02-14T11:32:06;100901.58;;;11.01;100.00
49645;BME280;36494;50.730;-1.932;2024-02-14T11:34:30;100901.97;;;11.00;100.00
49645;BME280;36494;50.730;-1.932;2024-02-14T11:36:57;100906.59;;;10.96;100.00
49645;BME280;36494;50.730;-1.932;2024-02-14T11:39:22;100906.09;;;11.01;100.00
49645;BME280;36494;50.730;-1.932;2024-02-14T11:41:48;100911.44;;;10.95;100.00
49645;BME280;36494;50.730;-1.932;2024-02-14T11:44:13;100920.58;;;10.99;100.00
49645;BME280;36494;50.730;-1.932;2024-02-14T11:46:41;100920.52;;;11.03;100.00
49645;BME280;36494;50.730;-1.932;2024-02-14T11:49:05;100915.83;;;11.01;100.00
49645;BME280;36494;50.730;-1.932;2024-02-14T11:51:32;100916.04;;;11.01;100.00
49645;BME280;36494;50.730;-1.932;2024-02-14T11:53:56;100917.81;;;11.02;100.00
49645;BME280;36494;50.730;-1.932;2024-02-14T11:56:22;100918.43;;;11.03;100.00
49645;BME280;36494;50.730;-1.932;2024-02-14T11:58:50;100917.01;;;10.97;100.00
49645;BME280;36494;50.730;-1.932;2024-02-14T12:01:12;100918.06;;;10.96;100.00
49645;BME280;36494;50.730;-1.932;2024-02-14T12:03:39;100917.82;;;10.94;100.00
49645;BME280;36494;50.730;-1.932;2024-02-14T12:06:04;100917.17;;;10.87;100.00
49645;BME280;36494;50.730;-1.932;2024-02-14T12:08:29;100914.84;;;10.85;100.00
49645;BME280;36494;50.730;-1.932;2024-02-14T12:10:55;100913.65;;;10.89;100.00
49645;BME280;36494;50.730;-1.932;2024-02-14T12:13:20;100906.68;;;10.94;100.00
49645;BME280;36494;50.730;-1.932;2024-02-14T12:15:46;100904.24;;;10.92;100.00
49645;BME280;36494;50.730;-1.932;2024-02-14T12:18:11;100908.88;;;10.89;100.00
49645;BME280;36494;50.730;-1.932;2024-02-14T12:20:37;100912.76;;;10.85;100.00